createdAt,value
2018-09-21T00:01:27.934Z,97.97
2018-09-21T00:04:07.073Z,97.06
2018-09-21T00:06:36.763Z,98.59
2018-09-21T00:09:10.536Z,98.37
2018-09-21T00:11:40.440Z,98.79
2018-09-21T00:14:11.644Z,98.84
2018-09-21T00:16:40.848Z,99.36
2018-09-21T00:19:10.148Z,99.59
2018-09-21T00:21:39.479Z,100.00
2018-09-21T00:24:08.707Z,100.00
2018-09-21T00:26:37.926Z,100.00
2018-09-21T00:29:07.364Z,100.00
2018-09-21T00:31:36.612Z,100.00
2018-09-21T00:34:05.878Z,100.00
2018-09-21T00:36:35.233Z,100.00
2018-09-21T00:39:05.548Z,100.00
2018-09-21T00:41:34.846Z,100.00
2018-09-21T00:44:05.482Z,100.00
2018-09-21T00:46:34.800Z,99.31
2018-09-21T00:49:03.992Z,100.00
2018-09-21T00:51:33.179Z,100.00
2018-09-21T00:54:02.554Z,100.00
2018-09-21T00:56:32.021Z,100.00
2018-09-21T00:59:01.324Z,100.00
2018-09-21T01:01:31.655Z,100.00
2018-09-21T01:06:42.251Z,100.00
2018-09-21T01:09:13.396Z,100.00
2018-09-21T01:11:42.777Z,100.00
2018-09-21T01:14:12.262Z,100.00
2018-09-21T01:16:41.535Z,100.00
2018-09-21T01:19:11.068Z,100.00
2018-09-21T01:21:40.655Z,100.00
2018-09-21T01:24:09.940Z,100.00
2018-09-21T01:26:39.100Z,100.00
2018-09-21T01:29:08.533Z,100.00
2018-09-21T01:31:37.826Z,100.00
2018-09-21T01:34:07.030Z,100.00
2018-09-21T01:36:41.397Z,100.00
2018-09-21T01:39:11.558Z,100.00
2018-09-21T01:41:40.764Z,100.00
2018-09-21T01:44:10.690Z,99.89
2018-09-21T01:46:40.310Z,100.00
2018-09-21T01:49:09.492Z,100.00
2018-09-21T01:51:38.837Z,100.00
2018-09-21T01:54:08.136Z,100.00
2018-09-21T01:56:37.896Z,100.00
2018-09-21T01:59:07.152Z,100.00
2018-09-21T02:01:36.407Z,100.00
2018-09-21T02:04:05.777Z,100.00
2018-09-21T02:06:35.008Z,100.00
2018-09-21T02:09:05.449Z,100.00
2018-09-21T02:11:34.729Z,100.00
2018-09-21T02:14:03.959Z,100.00
2018-09-21T02:16:33.227Z,100.00
2018-09-21T02:19:02.737Z,100.00
2018-09-21T02:21:33.016Z,100.00
2018-09-21T02:24:03.269Z,100.00
2018-09-21T02:26:33.145Z,100.00
2018-09-21T02:29:02.831Z,100.00
2018-09-21T02:31:32.310Z,100.00
2018-09-21T02:34:01.644Z,100.00
2018-09-21T02:36:30.917Z,100.00
2018-09-21T02:39:00.293Z,100.00
2018-09-21T02:41:29.724Z,100.00
2018-09-21T02:44:02.394Z,100.00
2018-09-21T02:46:32.650Z,100.00
2018-09-21T02:49:02.503Z,100.00
2018-09-21T02:51:32.716Z,100.00
2018-09-21T02:54:02.377Z,100.00
2018-09-21T02:56:32.019Z,100.00
2018-09-21T02:59:02.267Z,100.00
2018-09-21T03:01:33.464Z,100.00
2018-09-21T03:04:02.721Z,100.00
2018-09-21T03:06:31.835Z,100.00
2018-09-21T03:09:00.962Z,100.00
2018-09-21T03:11:30.269Z,100.00
2018-09-21T03:13:59.303Z,100.00
2018-09-21T03:16:28.450Z,100.00
2018-09-21T03:18:57.608Z,100.00
2018-09-21T03:21:26.984Z,100.00
2018-09-21T03:23:56.865Z,100.00
2018-09-21T03:26:26.735Z,100.00
2018-09-21T03:28:59.393Z,100.00
2018-09-21T03:31:28.760Z,100.00
2018-09-21T03:33:58.063Z,100.00
2018-09-21T03:36:27.273Z,100.00
2018-09-21T03:38:56.412Z,100.00
2018-09-21T03:41:25.809Z,100.00
2018-09-21T03:43:55.078Z,100.00
2018-09-21T03:46:24.756Z,100.00
2018-09-21T03:48:54.031Z,100.00
2018-09-21T03:51:24.104Z,100.00
2018-09-21T03:53:53.249Z,100.00
2018-09-21T03:56:22.849Z,100.00
2018-09-21T03:58:52.172Z,100.00
2018-09-21T04:01:29.560Z,100.00
2018-09-21T04:03:58.932Z,100.00
2018-09-21T04:06:28.761Z,100.00
2018-09-21T04:08:58.652Z,100.00
2018-09-21T04:11:29.793Z,100.00
2018-09-21T04:13:59.494Z,100.00
2018-09-21T04:16:29.830Z,100.00
2018-09-21T04:18:59.999Z,100.00
2018-09-21T04:21:29.313Z,100.00
2018-09-21T04:24:01.252Z,100.00
2018-09-21T04:26:31.030Z,100.00
2018-09-21T04:29:00.342Z,100.00
2018-09-21T04:31:30.014Z,100.00
2018-09-21T04:33:59.242Z,100.00
2018-09-21T04:36:28.357Z,100.00
2018-09-21T04:38:57.561Z,100.00
2018-09-21T04:41:26.826Z,100.00
2018-09-21T04:43:55.921Z,100.00
2018-09-21T04:46:25.655Z,100.00
2018-09-21T04:48:54.897Z,100.00
2018-09-21T04:51:24.669Z,100.00
2018-09-21T04:53:53.922Z,100.00
2018-09-21T04:56:23.466Z,100.00
2018-09-21T04:58:52.576Z,100.00
2018-09-21T05:01:22.281Z,100.00
2018-09-21T05:03:51.609Z,100.00
2018-09-21T05:06:21.239Z,100.00
2018-09-21T05:08:50.459Z,100.00
2018-09-21T05:11:19.833Z,100.00
2018-09-21T05:13:49.050Z,100.00
2018-09-21T05:16:18.289Z,100.00
2018-09-21T05:18:47.496Z,100.00
2018-09-21T05:21:16.803Z,100.00
2018-09-21T05:23:45.988Z,100.00
2018-09-21T05:26:15.159Z,100.00
2018-09-21T05:28:44.309Z,100.00
2018-09-21T05:31:14.480Z,100.00
2018-09-21T05:33:43.752Z,100.00
2018-09-21T05:36:12.904Z,100.00
2018-09-21T05:38:42.212Z,100.00
2018-09-21T05:41:11.377Z,100.00
2018-09-21T05:43:40.519Z,100.00
2018-09-21T05:46:09.903Z,100.00
2018-09-21T05:48:39.416Z,99.99
2018-09-21T05:51:08.786Z,96.61
2018-09-21T05:53:38.164Z,92.52
2018-09-21T05:56:07.870Z,89.40
2018-09-21T05:58:37.211Z,87.97
2018-09-21T06:01:06.373Z,86.39
2018-09-21T06:03:35.655Z,85.05
2018-09-21T06:06:05.033Z,82.24
2018-09-21T06:08:34.185Z,80.80
2018-09-21T06:11:03.412Z,79.81
2018-09-21T06:13:32.689Z,77.41
2018-09-21T06:16:01.829Z,75.33
2018-09-21T06:18:31.139Z,74.01
2018-09-21T06:21:00.423Z,71.97
2018-09-21T06:23:29.578Z,73.36
2018-09-21T06:25:58.832Z,72.95
2018-09-21T06:28:28.072Z,70.77
2018-09-21T06:30:57.359Z,70.15
2018-09-21T06:33:26.538Z,70.18
2018-09-21T06:35:55.780Z,69.53
2018-09-21T06:38:25.239Z,67.49
2018-09-21T06:40:54.519Z,66.06
2018-09-21T06:43:24.277Z,65.42
2018-09-21T06:45:53.990Z,65.86
2018-09-21T06:48:23.725Z,67.41
2018-09-21T06:50:52.924Z,69.05
2018-09-21T06:53:22.736Z,68.12
2018-09-21T06:55:51.996Z,67.53
2018-09-21T06:58:21.193Z,66.30
2018-09-21T07:00:50.381Z,65.32
2018-09-21T07:03:19.851Z,63.63
2018-09-21T07:05:49.028Z,60.51
2018-09-21T07:08:18.409Z,58.67
2018-09-21T07:10:47.690Z,58.31
2018-09-21T07:13:16.900Z,60.82
2018-09-21T07:15:46.265Z,61.10
2018-09-21T07:18:15.562Z,59.82
2018-09-21T07:20:44.811Z,56.26
2018-09-21T07:23:14.116Z,55.51
2018-09-21T07:25:43.398Z,55.58
2018-09-21T07:28:12.576Z,58.05
2018-09-21T07:30:41.783Z,56.31
2018-09-21T07:33:11.033Z,55.84
2018-09-21T07:35:40.239Z,57.47
2018-09-21T07:38:09.537Z,54.03
2018-09-21T07:40:38.804Z,53.22
2018-09-21T07:43:08.094Z,53.85
2018-09-21T07:45:37.204Z,52.86
2018-09-21T07:48:06.550Z,53.24
2018-09-21T07:50:35.809Z,52.29
2018-09-21T07:53:05.007Z,50.75
2018-09-21T07:55:34.323Z,49.54
2018-09-21T07:58:03.554Z,47.96
2018-09-21T08:00:32.760Z,47.98
2018-09-21T08:03:01.957Z,47.11
2018-09-21T08:05:33.710Z,49.43
2018-09-21T08:08:04.615Z,51.17
2018-09-21T08:10:33.806Z,48.75
2018-09-21T08:13:03.102Z,46.97
2018-09-21T08:15:32.437Z,44.31
2018-09-21T08:18:01.656Z,44.75
2018-09-21T08:20:30.817Z,42.71
2018-09-21T08:23:00.114Z,43.62
2018-09-21T08:25:29.248Z,44.56
2018-09-21T08:27:58.360Z,45.54
2018-09-21T08:30:27.579Z,44.27
2018-09-21T08:32:56.806Z,43.55
2018-09-21T08:35:25.998Z,44.05
2018-09-21T08:37:55.201Z,42.33
2018-09-21T08:40:24.884Z,41.37
2018-09-21T08:42:54.077Z,42.83
2018-09-21T08:45:23.729Z,43.13
2018-09-21T08:47:52.863Z,41.61
2018-09-21T08:50:22.426Z,41.10
2018-09-21T08:52:51.573Z,39.72
2018-09-21T08:55:20.598Z,40.08
2018-09-21T08:57:49.615Z,40.35
2018-09-21T09:00:19.835Z,38.94
2018-09-21T09:02:49.435Z,40.23
2018-09-21T09:05:23.597Z,39.11
2018-09-21T09:07:52.858Z,39.27
2018-09-21T09:10:22.382Z,40.39
2018-09-21T09:12:51.503Z,41.67
2018-09-21T09:15:20.961Z,39.22
2018-09-21T09:17:50.026Z,37.52
2018-09-21T09:20:21.100Z,39.82
2018-09-21T09:22:50.248Z,37.03
2018-09-21T09:25:20.151Z,37.54
2018-09-21T09:27:49.133Z,40.46
2018-09-21T09:30:20.710Z,40.73
2018-09-21T09:32:49.741Z,38.30
2018-09-21T09:35:20.557Z,38.47
2018-09-21T09:37:49.629Z,40.11
2018-09-21T09:40:20.884Z,42.03
2018-09-21T09:43:05.352Z,42.92
2018-09-21T09:45:34.648Z,42.79
2018-09-21T09:48:03.733Z,44.20
2018-09-21T09:50:33.619Z,42.06
2018-09-21T09:53:02.565Z,40.49
2018-09-21T09:55:31.552Z,42.40
2018-09-21T09:58:00.552Z,42.11
2018-09-21T10:00:34.755Z,43.83
2018-09-21T10:03:03.969Z,41.82
2018-09-21T10:05:32.973Z,39.19
2018-09-21T10:08:01.997Z,39.73
2018-09-21T10:10:30.965Z,39.75
2018-09-21T10:12:59.987Z,39.36
2018-09-21T10:15:29.121Z,42.23
2018-09-21T10:17:58.239Z,43.58
2018-09-21T10:20:56.890Z,43.22
2018-09-21T10:23:25.915Z,43.91
2018-09-21T10:25:54.981Z,43.02
2018-09-21T10:28:24.601Z,44.11
2018-09-21T10:30:53.559Z,41.89
2018-09-21T10:33:29.292Z,43.20
2018-09-21T10:35:58.280Z,44.06
2018-09-21T10:38:27.287Z,46.44
2018-09-21T10:40:56.353Z,44.21
2018-09-21T10:43:25.850Z,43.02
2018-09-21T10:45:54.924Z,41.96
2018-09-21T10:48:24.633Z,41.86
2018-09-21T10:50:53.769Z,44.10
2018-09-21T10:53:23.181Z,44.98
2018-09-21T10:55:52.359Z,41.39
2018-09-21T10:58:22.057Z,43.63
2018-09-21T11:00:51.306Z,41.60
2018-09-21T11:03:20.631Z,40.58
2018-09-21T11:05:49.782Z,39.71
2018-09-21T11:08:18.920Z,39.88
2018-09-21T11:10:48.310Z,42.55
2018-09-21T11:13:17.470Z,45.06
2018-09-21T11:15:46.640Z,43.64
2018-09-21T11:18:15.887Z,41.88
2018-09-21T11:20:45.263Z,41.79
2018-09-21T11:23:14.613Z,42.68
2018-09-21T11:25:43.842Z,42.03
2018-09-21T11:28:13.057Z,42.92
2018-09-21T11:30:42.279Z,40.83
2018-09-21T11:33:11.689Z,40.52
2018-09-21T11:35:40.814Z,42.87
2018-09-21T11:38:10.108Z,41.32
2018-09-21T11:40:39.369Z,39.20
2018-09-21T11:43:08.605Z,40.55
2018-09-21T11:45:37.757Z,41.82
2018-09-21T11:48:07.349Z,42.47
2018-09-21T11:50:36.545Z,41.21
2018-09-21T11:53:05.745Z,42.80
2018-09-21T11:55:34.989Z,40.92
2018-09-21T11:58:04.154Z,38.36
2018-09-21T12:00:33.261Z,39.92
2018-09-21T12:03:02.602Z,39.25
2018-09-21T12:05:31.785Z,39.17
2018-09-21T12:08:00.960Z,41.39
2018-09-21T12:10:30.235Z,40.43
2018-09-21T12:12:59.468Z,37.36
2018-09-21T12:15:28.685Z,39.15
2018-09-21T12:17:57.853Z,37.82
2018-09-21T12:20:27.003Z,40.45
2018-09-21T12:22:56.167Z,40.71
2018-09-21T12:25:25.549Z,42.62
2018-09-21T12:27:54.777Z,42.18
2018-09-21T12:30:24.462Z,39.46
2018-09-21T12:32:53.706Z,40.47
2018-09-21T12:35:23.226Z,39.76
2018-09-21T12:37:52.425Z,40.21
2018-09-21T12:40:21.942Z,37.69
2018-09-21T12:42:51.448Z,38.33
2018-09-21T12:45:20.687Z,36.71
2018-09-21T12:47:49.918Z,37.98
2018-09-21T12:50:21.946Z,38.43
2018-09-21T12:52:51.756Z,39.25
2018-09-21T12:55:21.948Z,41.71
2018-09-21T12:57:51.500Z,43.58
2018-09-21T13:00:20.640Z,40.86
2018-09-21T13:02:49.778Z,40.85
2018-09-21T13:05:21.130Z,42.18
2018-09-21T13:07:50.344Z,44.34
2018-09-21T13:10:20.477Z,43.77
2018-09-21T13:12:49.622Z,42.60
2018-09-21T13:15:20.303Z,44.10
2018-09-21T13:17:49.626Z,43.22
2018-09-21T13:20:20.477Z,42.60
2018-09-21T13:22:49.805Z,42.83
2018-09-21T13:25:19.977Z,42.29
2018-09-21T13:27:49.127Z,44.00
2018-09-21T13:30:21.087Z,43.92
2018-09-21T13:32:50.620Z,46.21
2018-09-21T13:35:20.682Z,46.09
2018-09-21T13:37:50.051Z,46.85
2018-09-21T13:40:20.158Z,46.60
2018-09-21T13:42:49.415Z,46.87
2018-09-21T13:45:19.952Z,45.63
2018-09-21T13:47:49.397Z,45.28
2018-09-21T13:50:21.295Z,42.91
2018-09-21T13:52:50.761Z,44.23
2018-09-21T13:55:19.971Z,43.22
2018-09-21T13:57:49.177Z,45.85
2018-09-21T14:00:20.461Z,47.25
2018-09-21T14:02:49.694Z,48.52
2018-09-21T14:05:23.286Z,49.73
2018-09-21T14:08:01.679Z,51.42
2018-09-21T14:11:13.370Z,50.77
2018-09-21T14:17:28.256Z,53.43
2018-09-21T14:19:57.356Z,52.93
2018-09-21T14:22:26.432Z,54.65
2018-09-21T14:24:55.522Z,52.81
2018-09-21T14:27:25.463Z,54.63
2018-09-21T14:29:54.637Z,54.49
2018-09-21T14:32:24.853Z,53.80
2018-09-21T14:34:53.840Z,55.29
2018-09-21T14:37:23.262Z,55.00
2018-09-21T14:39:52.381Z,54.78
2018-09-21T14:42:21.366Z,54.85
2018-09-21T14:44:56.979Z,56.17
2018-09-21T14:47:26.056Z,55.03
2018-09-21T14:49:55.148Z,54.97
2018-09-21T14:52:24.662Z,55.45
2018-09-21T14:54:53.677Z,56.85
2018-09-21T14:57:23.605Z,55.41
2018-09-21T14:59:52.792Z,56.35
2018-09-21T15:02:22.644Z,56.36
2018-09-21T15:04:51.649Z,56.78
2018-09-21T15:07:20.860Z,56.49
2018-09-21T15:09:50.021Z,56.76
2018-09-21T15:12:19.138Z,57.41
2018-09-21T15:14:48.253Z,57.96
2018-09-21T15:17:17.331Z,57.26
2018-09-21T15:19:46.721Z,58.91
2018-09-21T15:22:16.558Z,59.35
2018-09-21T15:24:45.640Z,58.59
2018-09-21T15:27:16.014Z,59.96
2018-09-21T15:29:45.263Z,59.13
2018-09-21T15:32:14.987Z,60.06
2018-09-21T15:34:45.699Z,60.20
2018-09-21T15:37:15.698Z,60.44
2018-09-21T15:39:44.781Z,59.69
2018-09-21T15:42:14.837Z,59.99
2018-09-21T15:44:44.187Z,60.41
2018-09-21T15:47:14.444Z,60.19
2018-09-21T15:49:43.562Z,60.58
2018-09-21T15:52:12.684Z,60.61
2018-09-21T15:54:41.916Z,60.70
2018-09-21T15:57:11.393Z,61.56
2018-09-21T15:59:40.691Z,62.32
2018-09-21T16:02:09.801Z,61.97
2018-09-21T16:04:38.882Z,61.28
2018-09-21T16:07:08.523Z,62.72
2018-09-21T16:09:37.530Z,61.42
2018-09-21T16:12:06.678Z,61.29
2018-09-21T16:14:36.157Z,60.97
2018-09-21T16:17:05.196Z,61.66
2018-09-21T16:19:34.445Z,62.34
2018-09-21T16:22:03.535Z,62.00
2018-09-21T16:24:32.581Z,62.18
2018-09-21T16:27:01.748Z,62.32
2018-09-21T16:29:30.836Z,62.95
2018-09-21T16:32:00.364Z,63.86
2018-09-21T16:34:29.483Z,63.75
2018-09-21T16:36:58.520Z,64.84
2018-09-21T16:39:27.523Z,64.44
2018-09-21T16:41:56.858Z,64.97
2018-09-21T16:44:26.452Z,65.00
2018-09-21T16:46:58.440Z,65.96
2018-09-21T16:49:27.551Z,66.21
2018-09-21T16:51:56.521Z,66.01
2018-09-21T16:54:26.128Z,67.19
2018-09-21T16:56:55.232Z,67.59
2018-09-21T16:59:24.888Z,68.48
2018-09-21T17:01:54.103Z,68.81
2018-09-21T17:04:23.659Z,68.39
2018-09-21T17:06:52.905Z,69.12
2018-09-21T17:09:22.853Z,69.01
2018-09-21T17:11:52.313Z,68.72
2018-09-21T17:14:22.003Z,69.04
2018-09-21T17:16:51.817Z,68.58
2018-09-21T17:19:21.504Z,69.08
2018-09-21T17:21:52.471Z,69.32
2018-09-21T17:24:22.222Z,68.84
2018-09-21T17:26:51.362Z,69.15
2018-09-21T17:29:20.716Z,70.46
2018-09-21T17:31:49.964Z,70.41
2018-09-21T17:34:23.814Z,70.66
2018-09-21T17:49:52.119Z,72.10
2018-09-21T17:52:30.927Z,71.48
2018-09-21T17:55:12.891Z,72.34
2018-09-21T17:57:42.545Z,72.31
2018-09-21T18:00:12.226Z,72.02
2018-09-21T18:02:41.491Z,72.08
2018-09-21T18:05:10.588Z,72.74
2018-09-21T18:07:39.742Z,73.26
2018-09-21T18:10:09.158Z,73.51
2018-09-21T18:12:44.839Z,73.67
2018-09-21T18:15:27.558Z,73.46
2018-09-21T18:18:04.188Z,73.89
2018-09-21T18:20:35.471Z,73.74
2018-09-21T18:23:08.964Z,73.34
2018-09-21T18:25:42.285Z,73.93
2018-09-21T18:28:17.000Z,73.47
2018-09-21T18:30:50.689Z,74.38
2018-09-21T18:33:36.515Z,74.39
2018-09-21T18:36:13.633Z,74.80
2018-09-21T18:38:48.653Z,74.14
2018-09-21T18:41:18.254Z,74.82
2018-09-21T18:43:53.526Z,74.48
2018-09-21T18:46:26.795Z,74.21
2018-09-21T18:48:57.576Z,75.07
2018-09-21T18:51:33.585Z,74.44
2018-09-21T18:54:05.723Z,74.68
2018-09-21T18:56:35.175Z,75.74
2018-09-21T18:59:04.777Z,75.49
2018-09-21T19:01:34.266Z,75.85
2018-09-21T19:04:03.672Z,75.41
2018-09-21T19:06:33.867Z,75.72
2018-09-21T19:09:05.565Z,76.37
2018-09-21T19:11:38.817Z,76.56
2018-09-21T19:14:09.980Z,76.83
2018-09-21T19:16:42.513Z,76.13
2018-09-21T19:19:12.860Z,76.95
2018-09-21T19:21:42.296Z,76.33
2018-09-21T19:24:11.953Z,76.46
2018-09-21T19:26:41.500Z,76.96
2018-09-21T19:29:13.334Z,77.79
2018-09-21T19:31:44.079Z,78.44
2018-09-21T19:34:13.722Z,78.83
2018-09-21T19:36:45.721Z,78.65
2018-09-21T19:39:16.219Z,78.76
2018-09-21T19:41:45.792Z,78.91
2018-09-21T19:44:16.104Z,78.94
2018-09-21T19:46:45.893Z,79.34
2018-09-21T19:49:15.606Z,79.34
2018-09-21T19:51:45.461Z,79.54
2018-09-21T19:54:15.877Z,79.73
2018-09-21T19:56:45.828Z,79.65
2018-09-21T19:59:15.486Z,79.49
2018-09-21T20:01:45.295Z,79.60
2018-09-21T20:04:14.800Z,79.23
2018-09-21T20:06:44.702Z,79.16
2018-09-21T20:09:14.572Z,79.36
2018-09-21T20:11:44.305Z,79.61
2018-09-21T20:14:15.426Z,79.65
2018-09-21T20:16:45.101Z,80.86
2018-09-21T20:19:15.529Z,80.77
2018-09-21T20:21:45.288Z,80.97
2018-09-21T20:24:15.032Z,80.08
2018-09-21T20:26:45.184Z,80.94
2018-09-21T20:29:15.194Z,83.23
2018-09-21T20:31:49.945Z,84.83
2018-09-21T20:34:19.255Z,83.54
2018-09-21T20:36:48.578Z,83.31
2018-09-21T20:39:20.676Z,82.72
2018-09-21T20:41:55.949Z,82.37
2018-09-21T20:44:29.300Z,82.18
2018-09-21T20:53:23.929Z,86.41
2018-09-21T20:56:04.775Z,86.78
2018-09-21T20:58:41.478Z,87.47
2018-09-21T21:03:51.583Z,89.14
2018-09-21T21:06:53.973Z,88.38
2018-09-21T21:09:49.940Z,88.04
2018-09-21T21:12:19.880Z,87.71
2018-09-21T21:14:53.188Z,87.51
2018-09-21T21:17:34.013Z,86.68
2018-09-21T21:23:23.793Z,86.24
2018-09-21T21:25:52.882Z,87.55
2018-09-21T21:28:23.273Z,88.88
2018-09-21T21:30:52.491Z,90.65
2018-09-21T21:35:56.139Z,91.16
2018-09-21T21:38:25.718Z,91.94
2018-09-21T21:40:54.837Z,93.33
2018-09-21T21:43:24.543Z,92.00
2018-09-21T21:45:53.970Z,89.50
2018-09-21T21:48:24.011Z,89.57
2018-09-21T21:50:53.329Z,88.04
2018-09-21T21:53:22.961Z,88.42
2018-09-21T21:55:52.274Z,88.54
2018-09-21T21:58:21.486Z,88.14
2018-09-21T22:00:55.600Z,88.84
2018-09-21T22:03:25.410Z,90.43
2018-09-21T22:05:54.718Z,91.53
2018-09-21T22:08:24.273Z,91.44
2018-09-21T22:10:53.556Z,91.37
2018-09-21T22:13:27.788Z,92.59
2018-09-21T22:15:57.122Z,93.60
2018-09-21T22:18:26.564Z,93.35
2018-09-21T22:20:55.822Z,94.15
2018-09-21T22:23:25.784Z,94.29
2018-09-21T22:25:55.172Z,94.61
2018-09-21T22:28:24.849Z,93.98
2018-09-21T22:30:54.110Z,95.65
2018-09-21T22:33:23.581Z,95.58
2018-09-21T22:35:52.908Z,97.12
2018-09-21T22:38:22.311Z,98.25
2018-09-21T22:40:51.529Z,98.59
2018-09-21T22:43:20.705Z,99.94
2018-09-21T22:45:50.103Z,99.79
2018-09-21T22:48:19.501Z,100.00
2018-09-21T22:50:48.873Z,100.00
2018-09-21T22:53:18.144Z,100.00
2018-09-21T22:55:47.325Z,100.00
2018-09-21T22:58:16.525Z,100.00
2018-09-21T23:00:45.782Z,100.00
2018-09-21T23:03:15.528Z,100.00
2018-09-21T23:05:44.769Z,100.00
2018-09-21T23:08:14.070Z,100.00
2018-09-21T23:10:43.327Z,100.00
2018-09-21T23:13:12.575Z,100.00
2018-09-21T23:15:41.885Z,100.00
2018-09-21T23:18:11.212Z,100.00
2018-09-21T23:20:40.473Z,100.00
2018-09-21T23:23:09.718Z,100.00
2018-09-21T23:25:38.894Z,100.00
2018-09-21T23:28:08.838Z,100.00
2018-09-21T23:30:38.137Z,100.00
2018-09-21T23:33:07.502Z,100.00
2018-09-21T23:35:36.709Z,100.00
2018-09-21T23:38:06.057Z,100.00
2018-09-21T23:40:35.269Z,100.00
2018-09-21T23:43:04.542Z,100.00
2018-09-21T23:45:34.455Z,100.00
2018-09-21T23:48:03.707Z,100.00
2018-09-21T23:50:32.910Z,100.00
2018-09-21T23:53:02.239Z,100.00
2018-09-21T23:55:31.471Z,100.00
2018-09-21T23:58:00.731Z,100.00
